createdAt,value
2017-05-01T00:00:29.690Z,0
2017-05-01T00:01:31.116Z,0
2017-05-01T00:02:32.537Z,0
2017-05-01T00:03:33.966Z,0
2017-05-01T00:04:35.393Z,0
2017-05-01T00:05:36.827Z,0
2017-05-01T00:06:38.249Z,0
2017-05-01T00:07:39.672Z,0
2017-05-01T00:08:41.092Z,0
2017-05-01T00:09:42.523Z,0
2017-05-01T00:10:43.972Z,0
2017-05-01T00:11:45.401Z,0
2017-05-01T00:12:46.835Z,0
2017-05-01T00:13:48.866Z,0
2017-05-01T00:14:50.289Z,0
2017-05-01T00:15:51.722Z,0
2017-05-01T00:16:53.147Z,0
2017-05-01T00:17:54.573Z,0
2017-05-01T00:18:56.530Z,0
2017-05-01T00:19:57.370Z,0
2017-05-01T00:20:58.792Z,0
2017-05-01T00:22:00.224Z,0
2017-05-01T00:23:01.648Z,0
2017-05-01T00:24:03.068Z,0
2017-05-01T00:25:04.496Z,0
2017-05-01T00:26:05.927Z,0
2017-05-01T00:27:07.356Z,0
2017-05-01T00:28:08.782Z,0
2017-05-01T00:29:10.211Z,0
2017-05-01T00:30:11.641Z,0
2017-05-01T00:31:13.066Z,0
2017-05-01T00:32:14.490Z,0
2017-05-01T00:33:15.911Z,0
2017-05-01T00:34:17.340Z,0
2017-05-01T00:35:18.765Z,0
2017-05-01T00:36:20.197Z,0
2017-05-01T00:37:21.622Z,0
2017-05-01T00:38:23.057Z,0
2017-05-01T00:39:24.523Z,0
2017-05-01T00:40:25.912Z,0
2017-05-01T00:41:27.340Z,0
2017-05-01T00:42:28.768Z,0
2017-05-01T00:43:30.192Z,0
2017-05-01T00:44:31.620Z,0
2017-05-01T00:45:33.047Z,0
2017-05-01T00:46:34.473Z,0
2017-05-01T00:47:35.899Z,0
2017-05-01T00:48:37.333Z,0
2017-05-01T00:49:38.760Z,0
2017-05-01T00:50:40.190Z,0
2017-05-01T00:51:41.607Z,0
2017-05-01T00:52:43.039Z,0
2017-05-01T00:53:45.225Z,0
2017-05-01T00:54:46.663Z,0
2017-05-01T00:55:48.093Z,0
2017-05-01T00:56:49.519Z,0
2017-05-01T00:57:50.942Z,0
2017-05-01T00:58:52.364Z,0
2017-05-01T00:59:53.798Z,0
2017-05-01T01:00:55.218Z,0
2017-05-01T01:01:56.637Z,0
2017-05-01T01:02:58.071Z,0
2017-05-01T01:03:59.494Z,0
2017-05-01T01:05:00.924Z,0
2017-05-01T01:06:02.353Z,0
2017-05-01T01:07:03.778Z,0
2017-05-01T01:08:05.203Z,0
2017-05-01T01:09:06.637Z,0
2017-05-01T01:10:08.058Z,0
2017-05-01T01:11:09.487Z,0
2017-05-01T01:12:10.913Z,0
2017-05-01T01:13:12.341Z,0
2017-05-01T01:14:14.645Z,0
2017-05-01T01:15:16.075Z,0
2017-05-01T01:16:17.505Z,0
2017-05-01T01:17:19.865Z,0
2017-05-01T01:18:21.290Z,0
2017-05-01T01:19:22.719Z,0
2017-05-01T01:20:24.139Z,0
2017-05-01T01:21:25.555Z,0
2017-05-01T01:22:26.988Z,0
2017-05-01T01:23:28.422Z,0
2017-05-01T01:24:29.844Z,0
2017-05-01T01:25:31.270Z,0
2017-05-01T01:26:32.703Z,0
2017-05-01T01:27:34.836Z,0
2017-05-01T01:28:36.260Z,0
2017-05-01T01:29:37.686Z,0
2017-05-01T01:30:39.109Z,0
2017-05-01T01:31:40.535Z,0
2017-05-01T01:32:41.960Z,0
2017-05-01T01:33:43.383Z,0
2017-05-01T01:34:44.825Z,0
2017-05-01T01:35:46.244Z,0
2017-05-01T01:36:47.670Z,0
2017-05-01T01:37:49.104Z,0
2017-05-01T01:38:50.528Z,0
2017-05-01T01:39:51.960Z,0
2017-05-01T01:40:53.381Z,0
2017-05-01T01:41:54.815Z,0
2017-05-01T01:42:56.240Z,0
2017-05-01T01:43:57.665Z,0
2017-05-01T01:44:59.086Z,0
2017-05-01T01:46:00.511Z,0
2017-05-01T01:47:01.936Z,0
2017-05-01T01:48:03.365Z,0
2017-05-01T01:49:04.786Z,0
2017-05-01T01:50:06.208Z,0
2017-05-01T01:51:07.636Z,0
2017-05-01T01:52:09.061Z,0
2017-05-01T01:53:10.486Z,0
2017-05-01T01:54:11.908Z,0
2017-05-01T01:55:13.330Z,0
2017-05-01T01:56:15.269Z,0
2017-05-01T01:57:17.435Z,0
2017-05-01T01:58:18.872Z,0
2017-05-01T01:59:20.298Z,0
2017-05-01T02:00:21.729Z,0
2017-05-01T02:01:23.158Z,0
2017-05-01T02:02:24.583Z,0
2017-05-01T02:03:26.034Z,0
2017-05-01T02:04:27.437Z,0
2017-05-01T02:05:28.865Z,0
2017-05-01T02:06:30.290Z,0
2017-05-01T02:07:31.711Z,0
2017-05-01T02:08:33.145Z,0
2017-05-01T02:09:34.569Z,0
2017-05-01T02:10:35.992Z,0
2017-05-01T02:11:37.419Z,0
2017-05-01T02:12:38.882Z,0
2017-05-01T02:13:40.276Z,0
2017-05-01T02:14:41.705Z,0
2017-05-01T02:15:43.131Z,0
2017-05-01T02:16:44.553Z,0
2017-05-01T02:17:45.978Z,0
2017-05-01T02:18:47.410Z,0
2017-05-01T02:19:48.847Z,0
2017-05-01T02:20:50.271Z,0
2017-05-01T02:21:51.697Z,0
2017-05-01T02:22:53.134Z,0
2017-05-01T02:23:54.571Z,0
2017-05-01T02:24:56.002Z,0
2017-05-01T02:25:57.416Z,0
2017-05-01T02:26:58.870Z,0
2017-05-01T02:28:00.271Z,0
2017-05-01T02:29:01.725Z,0
2017-05-01T02:30:03.150Z,0
2017-05-01T02:31:04.573Z,0
2017-05-01T02:32:06.001Z,0
2017-05-01T02:33:07.430Z,0
2017-05-01T02:34:09.623Z,0
2017-05-01T02:35:11.047Z,0
2017-05-01T02:36:12.476Z,0
2017-05-01T02:37:13.896Z,0
2017-05-01T02:38:15.328Z,0
2017-05-01T02:39:17.342Z,0
2017-05-01T02:40:18.765Z,0
2017-05-01T02:41:20.198Z,0
2017-05-01T02:42:21.624Z,0
2017-05-01T02:43:23.051Z,0
2017-05-01T02:44:24.474Z,0
2017-05-01T02:45:25.911Z,0
2017-05-01T02:46:27.341Z,0
2017-05-01T02:47:28.770Z,0
2017-05-01T02:48:30.190Z,0
2017-05-01T02:49:31.616Z,0
2017-05-01T02:50:33.043Z,0
2017-05-01T02:51:34.497Z,0
2017-05-01T02:52:35.892Z,0
2017-05-01T02:53:37.320Z,0
2017-05-01T02:54:38.744Z,0
2017-05-01T02:55:40.176Z,0
2017-05-01T02:56:41.637Z,0
2017-05-01T02:57:43.111Z,0
2017-05-01T02:58:44.544Z,0
2017-05-01T02:59:45.973Z,0
2017-05-01T03:00:47.398Z,0
2017-05-01T03:01:48.854Z,0
2017-05-01T03:02:50.282Z,0
2017-05-01T03:03:51.708Z,0
2017-05-01T03:04:53.237Z,0
2017-05-01T03:05:54.664Z,0
2017-05-01T03:06:56.097Z,0
2017-05-01T03:07:57.573Z,0
2017-05-01T03:08:58.995Z,0
2017-05-01T03:10:00.424Z,0
2017-05-01T03:11:01.847Z,0
2017-05-01T03:12:03.273Z,0
2017-05-01T03:13:04.697Z,0
2017-05-01T03:14:06.122Z,0
2017-05-01T03:15:07.563Z,0
2017-05-01T03:16:08.991Z,0
2017-05-01T03:17:10.420Z,0
2017-05-01T03:18:11.844Z,0
2017-05-01T03:19:13.369Z,0
2017-05-01T03:20:14.799Z,0
2017-05-01T03:21:16.237Z,0
2017-05-01T03:22:17.657Z,0
2017-05-01T03:23:19.177Z,0
2017-05-01T03:24:20.596Z,0
2017-05-01T03:25:22.029Z,0
2017-05-01T03:26:23.449Z,0
2017-05-01T03:27:24.886Z,0
2017-05-01T03:28:26.316Z,0
2017-05-01T03:29:27.740Z,0
2017-05-01T03:30:29.265Z,0
2017-05-01T03:31:30.678Z,0
2017-05-01T03:32:32.116Z,0
2017-05-01T03:33:33.628Z,0
2017-05-01T03:34:35.058Z,0
2017-05-01T03:35:36.481Z,0
2017-05-01T03:36:37.912Z,4
2017-05-01T03:37:39.348Z,4
2017-05-01T03:38:40.774Z,4
2017-05-01T03:39:42.212Z,0
2017-05-01T03:40:43.631Z,0
2017-05-01T03:41:45.057Z,0
2017-05-01T03:42:46.481Z,0
2017-05-01T03:43:47.913Z,4
2017-05-01T03:44:49.338Z,0
2017-05-01T03:45:50.758Z,4
2017-05-01T03:46:52.187Z,4
2017-05-01T03:47:53.614Z,4
2017-05-01T03:50:20.654Z,8
2017-05-01T03:51:22.079Z,8
2017-05-01T03:52:23.512Z,4
2017-05-01T03:53:24.934Z,8
2017-05-01T03:54:26.360Z,12
2017-05-01T03:55:27.790Z,12
2017-05-01T03:56:29.214Z,8
2017-05-01T03:57:30.635Z,8
2017-05-01T03:58:32.065Z,16
2017-05-01T03:59:33.499Z,16
2017-05-01T04:00:35.663Z,12
2017-05-01T04:01:37.092Z,16
2017-05-01T04:02:38.517Z,20
2017-05-01T04:03:40.002Z,20
2017-05-01T04:04:41.427Z,20
2017-05-01T04:05:42.853Z,24
2017-05-01T04:06:44.279Z,24
2017-05-01T04:07:45.709Z,28
2017-05-01T04:08:47.134Z,32
2017-05-01T04:09:48.557Z,32
2017-05-01T04:10:49.996Z,32
2017-05-01T04:11:51.420Z,40
2017-05-01T04:12:52.901Z,40
2017-05-01T04:13:54.330Z,44
2017-05-01T04:14:55.755Z,44
2017-05-01T04:15:58.124Z,48
2017-05-01T04:16:59.553Z,52
2017-05-01T04:18:00.982Z,56
2017-05-01T04:19:02.407Z,60
2017-05-01T04:20:03.838Z,64
2017-05-01T04:21:05.270Z,68
2017-05-01T04:22:06.743Z,76
2017-05-01T04:23:08.167Z,84
2017-05-01T04:24:10.165Z,92
2017-05-01T04:25:11.589Z,100
2017-05-01T04:26:13.018Z,104
2017-05-01T04:27:14.441Z,112
2017-05-01T04:28:15.869Z,124
2017-05-01T04:29:17.305Z,128
2017-05-01T04:30:18.731Z,140
2017-05-01T04:31:20.158Z,140
2017-05-01T04:32:21.590Z,148
2017-05-01T04:33:23.025Z,152
2017-05-01T04:34:24.450Z,164
2017-05-01T04:35:25.883Z,168
2017-05-01T04:36:27.307Z,172
2017-05-01T04:37:29.566Z,180
2017-05-01T04:38:30.992Z,184
2017-05-01T04:39:32.416Z,192
2017-05-01T04:40:33.851Z,192
2017-05-01T04:41:35.297Z,196
2017-05-01T04:42:36.729Z,200
2017-05-01T04:43:38.155Z,200
2017-05-01T04:44:39.577Z,204
2017-05-01T04:45:41.957Z,204
2017-05-01T04:46:43.387Z,212
2017-05-01T04:47:44.819Z,216
2017-05-01T04:48:46.253Z,220
2017-05-01T04:49:47.684Z,228
2017-05-01T04:50:49.113Z,232
2017-05-01T04:51:50.543Z,240
2017-05-01T04:52:51.970Z,248
2017-05-01T04:53:53.405Z,252
2017-05-01T04:54:55.735Z,264
2017-05-01T04:55:57.169Z,268
2017-05-01T04:56:58.600Z,276
2017-05-01T04:58:00.023Z,292
2017-05-01T04:59:01.453Z,300
2017-05-01T05:00:02.881Z,316
2017-05-01T05:01:04.304Z,332
2017-05-01T05:02:05.736Z,352
2017-05-01T05:03:07.162Z,372
2017-05-01T05:04:08.593Z,388
2017-05-01T05:05:10.024Z,408
2017-05-01T05:06:11.459Z,432
2017-05-01T05:07:12.895Z,456
2017-05-01T05:08:14.320Z,480
2017-05-01T05:09:15.741Z,512
2017-05-01T05:10:17.174Z,540
2017-05-01T05:11:18.597Z,572
2017-05-01T05:12:20.033Z,608
2017-05-01T05:13:21.457Z,640
2017-05-01T05:14:22.884Z,660
2017-05-01T05:15:24.317Z,676
2017-05-01T05:16:25.741Z,684
2017-05-01T05:17:27.173Z,688
2017-05-01T05:18:28.599Z,692
2017-05-01T05:19:30.035Z,696
2017-05-01T05:20:31.465Z,700
2017-05-01T05:21:32.889Z,704
2017-05-01T05:22:34.318Z,708
2017-05-01T05:23:35.745Z,712
2017-05-01T05:24:37.173Z,720
2017-05-01T05:25:38.596Z,732
2017-05-01T05:26:40.022Z,736
2017-05-01T05:27:41.454Z,748
2017-05-01T05:28:42.894Z,756
2017-05-01T05:29:44.322Z,768
2017-05-01T05:30:45.762Z,780
2017-05-01T05:31:47.190Z,800
2017-05-01T05:32:48.625Z,820
2017-05-01T05:33:50.053Z,840
2017-05-01T05:34:51.483Z,856
2017-05-01T05:35:52.909Z,884
2017-05-01T05:36:54.337Z,900
2017-05-01T05:37:55.763Z,912
2017-05-01T05:38:57.209Z,924
2017-05-01T05:39:58.643Z,936
2017-05-01T05:41:00.075Z,940
2017-05-01T05:42:01.502Z,944
2017-05-01T05:43:02.927Z,944
2017-05-01T05:44:04.365Z,948
2017-05-01T05:45:06.624Z,948
2017-05-01T05:46:08.047Z,952
2017-05-01T05:47:09.478Z,952
2017-05-01T05:48:10.906Z,944
2017-05-01T05:49:12.343Z,940
2017-05-01T05:50:13.774Z,932
2017-05-01T05:51:15.202Z,932
2017-05-01T05:52:16.639Z,916
2017-05-01T05:53:18.062Z,900
2017-05-01T05:54:19.494Z,892
2017-05-01T05:55:20.921Z,896
2017-05-01T05:56:22.341Z,892
2017-05-01T05:57:23.776Z,900
2017-05-01T05:58:25.213Z,904
2017-05-01T05:59:26.640Z,908
2017-05-01T06:00:28.075Z,908
2017-05-01T06:01:29.500Z,916
2017-05-01T06:02:30.931Z,920
2017-05-01T06:03:32.353Z,928
2017-05-01T06:04:33.792Z,936
2017-05-01T06:05:35.208Z,948
2017-05-01T06:06:36.638Z,956
2017-05-01T06:07:38.071Z,964
2017-05-01T06:08:39.503Z,972
2017-05-01T06:09:40.932Z,988
2017-05-01T06:10:42.360Z,1000
2017-05-01T06:11:43.793Z,1016
2017-05-01T06:12:45.226Z,1028
2017-05-01T06:13:46.656Z,1060
2017-05-01T06:14:48.096Z,1084
2017-05-01T06:15:49.530Z,1108
2017-05-01T06:16:50.957Z,1124
2017-05-01T06:17:52.391Z,1152
2017-05-01T06:18:53.813Z,1188
2017-05-01T06:19:55.244Z,1236
2017-05-01T06:20:56.676Z,1252
2017-05-01T06:21:58.109Z,1280
2017-05-01T06:22:59.538Z,1304
2017-05-01T06:24:00.977Z,1336
2017-05-01T06:25:02.408Z,1380
2017-05-01T06:26:03.836Z,1416
2017-05-01T06:27:05.270Z,1424
2017-05-01T06:28:06.708Z,1448
2017-05-01T06:29:08.136Z,1428
2017-05-01T06:30:09.566Z,1396
2017-05-01T06:31:10.993Z,1392
2017-05-01T06:32:12.430Z,1388
2017-05-01T06:33:13.861Z,1384
2017-05-01T06:34:15.291Z,1376
2017-05-01T06:35:16.720Z,1372
2017-05-01T06:36:18.152Z,1360
2017-05-01T06:37:19.585Z,1296
2017-05-01T06:38:21.027Z,1276
2017-05-01T06:39:22.456Z,1248
2017-05-01T06:40:23.898Z,1220
2017-05-01T06:41:25.333Z,1200
2017-05-01T06:42:26.760Z,1200
2017-05-01T06:43:28.193Z,1252
2017-05-01T06:44:29.625Z,1364
2017-05-01T06:45:31.057Z,1492
2017-05-01T06:46:32.488Z,1636
2017-05-01T06:47:33.920Z,1764
2017-05-01T06:48:35.378Z,1852
2017-05-01T06:49:36.815Z,1896
2017-05-01T06:50:38.248Z,1896
2017-05-01T06:51:39.679Z,1328
2017-05-01T06:52:41.137Z,1748
2017-05-01T06:53:42.581Z,1656
2017-05-01T06:54:44.008Z,1604
2017-05-01T06:55:45.474Z,1564
2017-05-01T06:56:46.908Z,1596
2017-05-01T06:57:48.339Z,1664
2017-05-01T06:58:49.775Z,1716
2017-05-01T06:59:51.219Z,1720
2017-05-01T07:00:52.654Z,1716
2017-05-01T07:01:54.079Z,1716
2017-05-01T07:02:55.521Z,1696
2017-05-01T07:03:56.947Z,1696
2017-05-01T07:04:58.396Z,1664
2017-05-01T07:05:59.828Z,1012
2017-05-01T07:07:01.270Z,1620
2017-05-01T07:08:02.709Z,1636
2017-05-01T07:09:04.141Z,1672
2017-05-01T07:10:05.575Z,1716
2017-05-01T07:11:07.031Z,1768
2017-05-01T07:12:08.474Z,1792
2017-05-01T07:13:09.908Z,1148
2017-05-01T07:14:11.337Z,1796
2017-05-01T07:15:12.770Z,1112
2017-05-01T07:16:14.205Z,1812
2017-05-01T07:17:15.655Z,1808
2017-05-01T07:18:17.092Z,1828
2017-05-01T07:19:18.530Z,1800
2017-05-01T07:20:19.960Z,1060
2017-05-01T07:21:21.385Z,1796
2017-05-01T07:22:22.817Z,1852
2017-05-01T07:23:24.268Z,1960
2017-05-01T07:24:25.702Z,2076
2017-05-01T07:25:27.145Z,2200
2017-05-01T07:26:28.571Z,2268
2017-05-01T07:27:30.014Z,2296
2017-05-01T07:28:31.568Z,2340
2017-05-01T07:29:33.064Z,2392
2017-05-01T07:30:34.505Z,2428
2017-05-01T07:31:35.942Z,2444
2017-05-01T07:32:37.438Z,2508
2017-05-01T07:33:38.898Z,2568
2017-05-01T07:34:40.329Z,2640
2017-05-01T07:35:41.761Z,2708
2017-05-01T07:36:43.193Z,2736
2017-05-01T07:37:44.629Z,2732
2017-05-01T07:38:46.063Z,2824
2017-05-01T07:39:47.494Z,2804
2017-05-01T07:40:48.957Z,1424
2017-05-01T07:41:50.395Z,2108
2017-05-01T07:42:51.833Z,2436
2017-05-01T07:43:53.268Z,2420
2017-05-01T07:44:54.711Z,2276
2017-05-01T07:45:56.135Z,2180
2017-05-01T07:46:57.576Z,2092
2017-05-01T07:47:59.018Z,2040
2017-05-01T07:49:00.470Z,2036
2017-05-01T07:50:01.901Z,2068
2017-05-01T07:51:03.348Z,2136
2017-05-01T07:52:04.871Z,2188
2017-05-01T07:53:06.305Z,2236
2017-05-01T07:54:07.741Z,2276
2017-05-01T07:55:09.176Z,2276
2017-05-01T07:56:10.621Z,2252
2017-05-01T07:57:12.056Z,2216
2017-05-01T07:58:13.502Z,2192
2017-05-01T07:59:14.942Z,2192
2017-05-01T08:00:16.382Z,2204
2017-05-01T08:01:17.817Z,2216
2017-05-01T08:02:19.252Z,2196
2017-05-01T08:03:20.685Z,2168
2017-05-01T08:04:22.119Z,2056
2017-05-01T08:05:23.553Z,1932
2017-05-01T08:06:25.090Z,1856
2017-05-01T08:07:26.522Z,1820
2017-05-01T08:08:27.954Z,1824
2017-05-01T08:09:29.385Z,1796
2017-05-01T08:10:30.823Z,1696
2017-05-01T08:11:32.253Z,1512
2017-05-01T08:12:33.820Z,1416
2017-05-01T08:13:35.253Z,1248
2017-05-01T08:14:36.687Z,1136
2017-05-01T08:15:38.123Z,1060
2017-05-01T08:16:39.558Z,1100
2017-05-01T08:17:41.004Z,1096
2017-05-01T08:18:42.901Z,1104
2017-05-01T08:19:44.350Z,1144
2017-05-01T08:20:45.789Z,1172
2017-05-01T08:21:47.222Z,1188
2017-05-01T08:22:48.658Z,1208
2017-05-01T08:23:50.087Z,1184
2017-05-01T08:24:51.534Z,1132
2017-05-01T08:25:52.972Z,1136
2017-05-01T08:26:54.403Z,1140
2017-05-01T08:27:55.847Z,1144
2017-05-01T08:28:57.274Z,1136
2017-05-01T08:29:58.711Z,1108
2017-05-01T08:31:00.146Z,1088
2017-05-01T08:32:01.582Z,1072
2017-05-01T08:33:03.011Z,1068
2017-05-01T08:34:04.440Z,1048
2017-05-01T08:35:05.874Z,1004
2017-05-01T08:36:07.315Z,916
2017-05-01T08:37:08.751Z,932
2017-05-01T08:38:10.185Z,908
2017-05-01T08:39:11.622Z,904
2017-05-01T08:40:13.058Z,992
2017-05-01T08:41:14.493Z,964
2017-05-01T08:42:15.925Z,904
2017-05-01T08:43:17.355Z,980
2017-05-01T08:44:18.792Z,944
2017-05-01T08:45:20.223Z,992
2017-05-01T08:46:21.660Z,1076
2017-05-01T08:47:23.097Z,1240
2017-05-01T08:48:24.539Z,1212
2017-05-01T08:49:25.978Z,1196
2017-05-01T08:50:27.403Z,1188
2017-05-01T08:51:28.837Z,1180
2017-05-01T08:52:30.271Z,1144
2017-05-01T08:53:31.717Z,1088
2017-05-01T08:54:33.148Z,1032
2017-05-01T08:55:34.579Z,1000
2017-05-01T08:56:36.006Z,968
2017-05-01T08:57:37.451Z,928
2017-05-01T08:58:38.885Z,920
2017-05-01T08:59:40.320Z,884
2017-05-01T09:00:41.751Z,876
2017-05-01T09:01:43.187Z,860
2017-05-01T09:02:44.616Z,852
2017-05-01T09:03:46.052Z,856
2017-05-01T09:04:47.487Z,844
2017-05-01T09:05:48.917Z,860
2017-05-01T09:06:50.338Z,860
2017-05-01T09:07:51.796Z,884
2017-05-01T09:08:53.235Z,916
2017-05-01T09:09:54.667Z,920
2017-05-01T09:10:56.098Z,912
2017-05-01T09:11:57.528Z,920
2017-05-01T09:12:58.958Z,912
2017-05-01T09:14:00.399Z,892
2017-05-01T09:15:01.838Z,852
2017-05-01T09:16:03.275Z,852
2017-05-01T09:17:04.711Z,828
2017-05-01T09:18:06.140Z,832
2017-05-01T09:19:07.614Z,820
2017-05-01T09:20:09.047Z,816
2017-05-01T09:21:10.479Z,788
2017-05-01T09:22:11.910Z,780
2017-05-01T09:23:13.395Z,820
2017-05-01T09:24:14.824Z,768
2017-05-01T09:25:16.261Z,788
2017-05-01T09:26:17.696Z,836
2017-05-01T09:27:19.156Z,844
2017-05-01T09:28:20.591Z,848
2017-05-01T09:29:22.030Z,856
2017-05-01T09:30:23.468Z,868
2017-05-01T09:31:24.910Z,860
2017-05-01T09:32:26.348Z,856
2017-05-01T09:33:27.788Z,848
2017-05-01T09:34:29.288Z,872
2017-05-01T09:35:30.719Z,900
2017-05-01T09:36:32.149Z,940
2017-05-01T09:37:33.572Z,992
2017-05-01T09:38:35.010Z,1060
2017-05-01T09:39:36.447Z,1124
2017-05-01T09:40:37.878Z,1192
2017-05-01T09:41:39.312Z,1236
2017-05-01T09:42:40.747Z,1248
2017-05-01T09:43:42.178Z,1292
2017-05-01T09:44:43.615Z,1304
2017-05-01T09:45:45.157Z,1284
2017-05-01T09:46:46.585Z,1248
2017-05-01T09:47:48.017Z,1184
2017-05-01T09:48:49.455Z,1156
2017-05-01T09:49:50.947Z,1148
2017-05-01T09:50:52.397Z,1132
2017-05-01T09:51:53.828Z,1092
2017-05-01T09:52:55.307Z,1056
2017-05-01T09:53:56.747Z,1032
2017-05-01T09:54:58.184Z,1016
2017-05-01T09:55:59.616Z,1012
2017-05-01T09:57:01.062Z,1012
2017-05-01T09:58:02.486Z,1016
2017-05-01T09:59:03.920Z,1020
2017-05-01T10:00:05.359Z,1028
2017-05-01T10:01:06.791Z,1072
2017-05-01T10:02:08.227Z,1120
2017-05-01T10:03:09.658Z,1172
2017-05-01T10:04:11.105Z,1216
2017-05-01T10:05:12.530Z,1228
2017-05-01T10:06:13.971Z,1240
2017-05-01T10:07:15.402Z,1276
2017-05-01T10:08:16.941Z,1300
2017-05-01T10:09:18.371Z,1280
2017-05-01T10:10:19.803Z,1272
2017-05-01T10:11:21.271Z,1240
2017-05-01T10:12:22.710Z,1216
2017-05-01T10:13:24.134Z,1136
2017-05-01T10:14:25.577Z,1096
2017-05-01T10:15:27.013Z,1128
2017-05-01T10:16:28.448Z,1156
2017-05-01T10:17:29.881Z,1252
2017-05-01T10:18:31.311Z,1260
2017-05-01T10:19:32.740Z,1240
2017-05-01T10:20:34.168Z,1380
2017-05-01T10:21:35.601Z,1496
2017-05-01T10:22:37.036Z,1556
2017-05-01T10:23:38.464Z,1648
2017-05-01T10:24:39.917Z,1740
2017-05-01T10:25:41.349Z,1856
2017-05-01T10:26:42.784Z,1964
2017-05-01T10:27:44.217Z,2072
2017-05-01T10:28:45.658Z,2064
2017-05-01T10:29:47.098Z,2100
2017-05-01T10:30:48.538Z,2004
2017-05-01T10:31:49.976Z,2028
2017-05-01T10:32:51.407Z,2056
2017-05-01T10:33:52.833Z,2064
2017-05-01T10:34:54.273Z,2144
2017-05-01T10:35:55.699Z,2280
2017-05-01T10:36:57.128Z,2400
2017-05-01T10:37:58.548Z,2564
2017-05-01T10:38:59.985Z,2692
2017-05-01T10:40:01.416Z,2772
2017-05-01T10:41:02.850Z,2576
2017-05-01T10:42:04.301Z,2544
2017-05-01T10:43:05.734Z,2536
2017-05-01T10:44:07.171Z,2412
2017-05-01T10:45:08.602Z,2348
2017-05-01T10:46:10.045Z,2348
2017-05-01T10:47:11.475Z,2376
2017-05-01T10:48:12.905Z,2508
2017-05-01T10:49:14.342Z,2732
2017-05-01T10:50:15.769Z,2840
2017-05-01T10:51:17.201Z,2864
2017-05-01T10:52:18.631Z,2784
2017-05-01T10:53:20.080Z,2664
2017-05-01T10:54:21.505Z,2528
2017-05-01T10:55:22.944Z,2368
2017-05-01T10:56:24.366Z,2292
2017-05-01T10:57:25.811Z,2224
2017-05-01T10:58:27.257Z,2080
2017-05-01T10:59:28.687Z,2240
2017-05-01T11:00:30.122Z,2336
2017-05-01T11:01:31.569Z,2404
2017-05-01T11:02:32.996Z,2224
2017-05-01T11:03:34.428Z,2536
2017-05-01T11:04:35.860Z,2524
2017-05-01T11:05:37.295Z,2476
2017-05-01T11:06:38.730Z,2476
2017-05-01T11:07:40.176Z,2492
2017-05-01T11:08:41.610Z,2472
2017-05-01T11:09:43.042Z,2384
2017-05-01T11:10:44.475Z,2248
2017-05-01T11:11:45.902Z,2068
2017-05-01T11:12:47.338Z,1888
2017-05-01T11:13:48.770Z,1820
2017-05-01T11:14:50.197Z,1812
2017-05-01T11:15:51.641Z,1756
2017-05-01T11:16:53.074Z,1680
2017-05-01T11:17:54.512Z,1676
2017-05-01T11:18:56.726Z,1684
2017-05-01T11:19:57.354Z,1644
2017-05-01T11:20:58.785Z,1612
2017-05-01T11:22:00.224Z,1712
2017-05-01T11:23:01.649Z,1632
2017-05-01T11:24:03.096Z,1484
2017-05-01T11:25:04.542Z,1296
2017-05-01T11:26:05.983Z,1168
2017-05-01T11:27:07.405Z,1084
2017-05-01T11:28:08.836Z,1016
2017-05-01T11:29:10.271Z,980
2017-05-01T11:30:11.713Z,944
2017-05-01T11:31:13.154Z,888
2017-05-01T11:32:14.579Z,860
2017-05-01T11:33:16.011Z,980
2017-05-01T11:34:17.458Z,1092
2017-05-01T11:35:18.888Z,1224
2017-05-01T11:36:20.326Z,1244
2017-05-01T11:37:21.759Z,1268
2017-05-01T11:38:23.187Z,1316
2017-05-01T11:39:24.619Z,1284
2017-05-01T11:40:26.045Z,1260
2017-05-01T11:41:27.485Z,1324
2017-05-01T11:42:28.923Z,1460
2017-05-01T11:43:30.359Z,1644
2017-05-01T11:44:31.796Z,1864
2017-05-01T11:45:33.243Z,1940
2017-05-01T11:46:34.670Z,1980
2017-05-01T11:47:36.127Z,1556
2017-05-01T11:48:37.567Z,1468
2017-05-01T11:49:39.011Z,16
2017-05-01T11:50:40.440Z,696
2017-05-01T11:51:41.879Z,1772
2017-05-01T11:52:43.313Z,1844
2017-05-01T11:53:44.756Z,2124
2017-05-01T11:54:46.180Z,2144
2017-05-01T11:55:47.618Z,1980
2017-05-01T11:56:49.066Z,1980
2017-05-01T11:57:50.505Z,2032
2017-05-01T11:58:51.935Z,1928
2017-05-01T11:59:53.406Z,1856
2017-05-01T12:00:54.852Z,1752
2017-05-01T12:01:56.285Z,1832
2017-05-01T12:02:57.717Z,1084
2017-05-01T12:03:59.161Z,1148
2017-05-01T12:05:00.600Z,1424
2017-05-01T12:06:02.031Z,1256
2017-05-01T12:07:03.494Z,1740
2017-05-01T12:08:04.989Z,1208
2017-05-01T12:09:06.421Z,1620
2017-05-01T12:10:07.848Z,1596
2017-05-01T12:11:09.278Z,1676
2017-05-01T12:12:10.716Z,2020
2017-05-01T12:13:12.150Z,2028
2017-05-01T12:14:13.627Z,2108
2017-05-01T12:15:15.060Z,2128
2017-05-01T12:16:16.488Z,2128
2017-05-01T12:17:17.921Z,2104
2017-05-01T12:18:19.385Z,2048
2017-05-01T12:19:20.809Z,1948
2017-05-01T12:20:22.250Z,1916
2017-05-01T12:21:23.677Z,1856
2017-05-01T12:22:25.119Z,1876
2017-05-01T12:23:27.264Z,1568
2017-05-01T12:24:28.714Z,1852
2017-05-01T12:25:30.148Z,1800
2017-05-01T12:26:31.595Z,1736
2017-05-01T12:27:33.027Z,1632
2017-05-01T12:28:34.463Z,1676
2017-05-01T12:29:35.910Z,1668
2017-05-01T12:30:37.346Z,1680
2017-05-01T12:31:38.787Z,1700
2017-05-01T12:32:40.230Z,1704
2017-05-01T12:33:41.671Z,1736
2017-05-01T12:34:43.127Z,1876
2017-05-01T12:35:44.563Z,1932
2017-05-01T12:36:46.001Z,1928
2017-05-01T12:37:47.427Z,1920
2017-05-01T12:38:48.869Z,1328
2017-05-01T12:39:50.310Z,1860
2017-05-01T12:40:51.743Z,1828
2017-05-01T12:41:53.177Z,1808
2017-05-01T12:42:54.613Z,1760
2017-05-01T12:43:56.053Z,1724
2017-05-01T12:44:57.489Z,1720
2017-05-01T12:45:58.922Z,1700
2017-05-01T12:47:00.350Z,1620
2017-05-01T12:48:01.783Z,1496
2017-05-01T12:49:03.218Z,1332
2017-05-01T12:50:04.650Z,1116
2017-05-01T12:51:06.088Z,1208
2017-05-01T12:52:07.533Z,1200
2017-05-01T12:53:08.973Z,1156
2017-05-01T12:54:10.408Z,1116
2017-05-01T12:55:11.837Z,1092
2017-05-01T12:56:13.280Z,1036
2017-05-01T12:57:14.715Z,968
2017-05-01T12:58:16.147Z,928
2017-05-01T12:59:17.595Z,940
2017-05-01T13:00:19.025Z,972
2017-05-01T13:01:20.462Z,996
2017-05-01T13:02:21.887Z,1036
2017-05-01T13:03:23.330Z,1080
2017-05-01T13:04:24.775Z,1120
2017-05-01T13:05:26.200Z,1168
2017-05-01T13:06:28.463Z,1160
2017-05-01T13:07:29.897Z,1196
2017-05-01T13:08:31.328Z,1168
2017-05-01T13:09:32.757Z,1136
2017-05-01T13:10:34.186Z,1100
2017-05-01T13:11:35.622Z,1052
2017-05-01T13:12:37.880Z,992
2017-05-01T13:13:39.315Z,1008
2017-05-01T13:14:40.752Z,1104
2017-05-01T13:15:42.185Z,1116
2017-05-01T13:16:43.644Z,1056
2017-05-01T13:17:45.075Z,1124
2017-05-01T13:18:46.510Z,1264
2017-05-01T13:19:47.948Z,1468
2017-05-01T13:20:49.392Z,1508
2017-05-01T13:21:50.820Z,1516
2017-05-01T13:22:52.258Z,1560
2017-05-01T13:23:53.698Z,1604
2017-05-01T13:24:55.141Z,1600
2017-05-01T13:25:56.574Z,1576
2017-05-01T13:26:58.004Z,1568
2017-05-01T13:27:59.437Z,1560
2017-05-01T13:29:00.857Z,1508
2017-05-01T13:30:02.298Z,1428
2017-05-01T13:31:03.723Z,1368
2017-05-01T13:32:05.173Z,1404
2017-05-01T13:33:06.611Z,1364
2017-05-01T13:34:08.044Z,1244
2017-05-01T13:35:09.544Z,1300
2017-05-01T13:36:11.114Z,1336
2017-05-01T13:37:12.551Z,1396
2017-05-01T13:38:13.982Z,1408
2017-05-01T13:39:15.415Z,1432
2017-05-01T13:40:16.844Z,1380
2017-05-01T13:41:18.276Z,1348
2017-05-01T13:42:19.713Z,1276
2017-05-01T13:43:21.157Z,1212
2017-05-01T13:44:22.588Z,1172
2017-05-01T13:45:24.011Z,1144
2017-05-01T13:46:26.023Z,1048
2017-05-01T13:47:27.465Z,964
2017-05-01T13:48:28.899Z,912
2017-05-01T13:49:30.345Z,912
2017-05-01T13:50:31.775Z,912
2017-05-01T13:51:33.213Z,948
2017-05-01T13:52:34.646Z,980
2017-05-01T13:53:36.071Z,920
2017-05-01T13:54:37.508Z,976
2017-05-01T13:55:38.943Z,1072
2017-05-01T13:56:40.387Z,1080
2017-05-01T13:57:41.822Z,1164
2017-05-01T13:58:43.253Z,1248
2017-05-01T13:59:44.685Z,1348
2017-05-01T14:00:46.125Z,1320
2017-05-01T14:01:47.557Z,1340
2017-05-01T14:02:48.994Z,1340
2017-05-01T14:03:50.425Z,1364
2017-05-01T14:04:51.866Z,1396
2017-05-01T14:05:53.293Z,1428
2017-05-01T14:06:54.730Z,1464
2017-05-01T14:07:56.156Z,1488
2017-05-01T14:08:58.342Z,1508
2017-05-01T14:10:00.034Z,1488
2017-05-01T14:11:01.467Z,1440